Hlavní strana
METAR-TAF:

METAR-TAF

Letiště :

Statesboro-Bulloch County Airport

Statesboro, Georgie, Spojené státy americké

zeměpisná šířka: 32-28-59N, zeměpisná délka: 081-44-14W, výška: 57 m

Aktuální stav počasí

Zpráva byla vytvořena před 16 minutami, v 02:55 UTC
Jihojihozápadní vítr 6 kt
Teplota 17°C
Vlhkost vzduchu 77%
Tlak 1020 hPa
Viditelnost: 16.1 km
Polojasno ve výšce 7500 ft
Polojasno ve výšce 8500 ft
Oblačno až skoro zataženo ve výšce 11000 ft

METAR: KTBR 190255Z AUTO 20006KT 10SM SCT075 SCT085 BKN110 17/13 A3013 RMK AO2 T01710130 TSNO

Čas: 22:11 (03:11 UTC)


TAF: chybějící

Stav a předpovědi počasí z více než 4 000 letišť (zprávy METAR a TAF).

Červené a žluté tečky na mapě představují dostupné meteorologické stanice.

Když kurzor umístíte na tečku, zobrazí se název stanice.

Pak kliknutím zobrazíte stav a předpověď počasí.

Chcete-li změnit mapu, kliknutím na zelené tlačítko se znaménkem +mapu přiblížíte, kliknutím na zelené tlačítko se znaménkem – mapu oddálíte a kliknutím na zelené šipky přejdete na sousední mapy.


METAR-TAF: